Time;durP1;ratioP1;P1;durP2;ratioP2;P2;SDS_P1;SDS_P2;PMS_P1;PMS_P2;Temp;Humidity;BMP_temperature;BMP_pressure;BME280_temperature;BME280_humidity;BME280_pressure;Samples;Min_cycle;Max_cycle;Signal;HPM_P1;HPM_P2
2024/04/04 00:00:55;;;;;;;2.57;1.80;;;11.00;99.90;;;;;;4994618;28;20533;-69
2024/04/04 00:03:21;;;;;;;2.60;1.90;;;11.00;99.90;;;;;;4995390;28;20612;-70
2024/04/04 00:05:50;;;;;;;3.60;1.53;;;11.00;99.90;;;;;;4995093;28;20513;-69
2024/04/04 00:08:16;;;;;;;2.80;1.50;;;11.00;99.90;;;;;;4994392;28;20179;-69
2024/04/04 00:10:41;;;;;;;3.73;1.60;;;11.00;99.90;;;;;;4992247;28;20534;-69
2024/04/04 00:13:07;;;;;;;3.43;1.90;;;11.00;99.90;;;;;;5008823;23;20238;-69
2024/04/04 00:15:38;;;;;;;2.40;1.50;;;11.00;99.90;;;;;;4989603;28;20199;-69
2024/04/04 00:18:04;;;;;;;3.13;1.40;;;11.00;99.90;;;;;;4994377;28;20214;-69
2024/04/04 00:20:29;;;;;;;2.40;1.70;;;11.10;99.90;;;;;;4993259;28;20434;-69
2024/04/04 00:22:55;;;;;;;1.33;1.23;;;11.10;99.90;;;;;;5002364;28;20454;-68
2024/04/04 00:25:21;;;;;;;2.03;1.67;;;11.20;99.90;;;;;;4994926;28;20200;-69
2024/04/04 00:27:46;;;;;;;2.60;2.17;;;11.20;99.90;;;;;;5004267;28;20182;-69
2024/04/04 00:30:12;;;;;;;3.50;1.67;;;11.20;99.90;;;;;;5006211;28;20192;-69
2024/04/04 00:32:37;;;;;;;1.53;1.40;;;11.20;99.90;;;;;;5009599;28;20720;-69
2024/04/04 00:35:03;;;;;;;2.50;1.50;;;11.10;99.90;;;;;;4996005;28;20532;-69
2024/04/04 00:37:28;;;;;;;4.73;1.87;;;11.10;99.90;;;;;;4996594;28;20178;-69
2024/04/04 00:39:54;;;;;;;2.27;1.50;;;11.10;99.90;;;;;;5011898;28;20641;-69
2024/04/04 00:42:19;;;;;;;5.40;1.70;;;11.10;99.90;;;;;;4999951;28;20202;-69
2024/04/04 00:44:45;;;;;;;5.03;1.87;;;11.10;99.90;;;;;;4997066;28;20183;-69
2024/04/04 00:47:11;;;;;;;2.83;1.50;;;11.10;99.90;;;;;;4993714;28;20199;-69
2024/04/04 00:49:37;;;;;;;3.23;2.00;;;11.00;99.90;;;;;;5009936;28;20187;-69
2024/04/04 00:52:08;;;;;;;2.03;1.80;;;11.00;99.90;;;;;;5012545;28;20206;-69
2024/04/04 00:54:38;;;;;;;3.00;1.60;;;10.90;99.90;;;;;;5006640;28;20823;-69
2024/04/04 00:57:04;;;;;;;3.37;1.53;;;10.90;99.90;;;;;;4999330;28;20419;-69
2024/04/04 00:59:30;;;;;;;3.00;1.43;;;11.00;99.90;;;;;;4995189;28;20990;-69
2024/04/04 01:01:55;;;;;;;3.03;1.70;;;10.90;99.90;;;;;;4997892;28;20461;-69
2024/04/04 01:04:20;;;;;;;1.63;1.23;;;10.90;99.90;;;;;;5011982;28;20179;-69
2024/04/04 01:06:48;;;;;;;1.90;1.70;;;10.80;99.90;;;;;;5004241;28;20199;-69
2024/04/04 01:09:15;;;;;;;2.50;1.53;;;10.80;99.90;;;;;;4995272;28;20188;-69
2024/04/04 01:11:41;;;;;;;6.73;2.00;;;10.80;99.90;;;;;;5001988;28;20470;-70
2024/04/04 01:14:07;;;;;;;3.30;1.83;;;10.70;99.90;;;;;;5000387;28;20441;-69
2024/04/04 01:16:33;;;;;;;1.60;1.40;;;10.80;99.90;;;;;;4999791;28;20270;-69
2024/04/04 01:18:58;;;;;;;4.60;2.43;;;10.70;99.90;;;;;;4994031;28;20557;-69
2024/04/04 01:21:24;;;;;;;5.97;1.73;;;10.80;99.90;;;;;;4995279;28;20282;-69
2024/04/04 01:23:49;;;;;;;2.90;1.20;;;10.80;99.90;;;;;;5003044;28;20610;-69
2024/04/04 01:26:15;;;;;;;2.23;1.40;;;10.80;99.90;;;;;;4995445;28;20684;-67
2024/04/04 01:28:40;;;;;;;1.93;1.47;;;10.80;99.90;;;;;;4994184;28;20184;-67
2024/04/04 01:31:06;;;;;;;5.33;1.50;;;10.80;99.90;;;;;;5005834;28;20215;-68
2024/04/04 01:33:31;;;;;;;2.13;1.40;;;10.80;99.90;;;;;;4994917;28;20190;-68
2024/04/04 01:35:57;;;;;;;2.70;1.47;;;10.80;99.90;;;;;;4995902;28;20692;-68
2024/04/04 01:38:22;;;;;;;2.30;1.20;;;10.80;99.90;;;;;;4995135;28;20199;-68
2024/04/04 01:40:48;;;;;;;5.27;1.33;;;10.80;99.90;;;;;;4996110;28;20199;-67
2024/04/04 01:43:14;;;;;;;2.07;1.60;;;10.90;99.90;;;;;;4995444;28;20200;-68
2024/04/04 01:45:39;;;;;;;8.73;1.30;;;10.80;99.90;;;;;;5003273;28;20624;-68
2024/04/04 01:48:05;;;;;;;1.67;1.40;;;10.90;99.90;;;;;;4992697;28;20203;-69
2024/04/04 01:50:31;;;;;;;1.67;1.20;;;10.90;99.90;;;;;;5006793;28;20187;-69
2024/04/04 01:52:56;;;;;;;2.37;1.50;;;10.90;99.90;;;;;;4998862;28;20847;-69
2024/04/04 01:55:22;;;;;;;1.77;1.17;;;10.90;99.90;;;;;;4995960;28;20198;-68
2024/04/04 01:57:47;;;;;;;1.47;1.27;;;11.00;99.90;;;;;;5002599;28;20179;-68
2024/04/04 02:00:13;;;;;;;1.60;1.30;;;11.00;99.90;;;;;;5009861;28;20175;-69
2024/04/04 02:02:39;;;;;;;2.00;1.30;;;11.00;99.90;;;;;;5004404;28;20195;-69
2024/04/04 02:05:04;;;;;;;2.13;1.43;;;11.00;99.90;;;;;;4994793;28;20238;-68
2024/04/04 02:07:30;;;;;;;4.40;1.23;;;11.00;99.90;;;;;;5008589;28;20175;-67
2024/04/04 02:09:56;;;;;;;3.03;1.50;;;11.00;99.90;;;;;;5011304;28;20438;-68
2024/04/04 02:12:21;;;;;;;1.57;1.33;;;11.00;99.90;;;;;;4999879;28;20229;-68
2024/04/04 02:14:47;;;;;;;2.03;1.87;;;11.00;99.90;;;;;;5002442;28;20182;-68
2024/04/04 02:17:12;;;;;;;2.00;1.63;;;11.00;99.90;;;;;;4996686;28;20182;-68
2024/04/04 02:19:38;;;;;;;1.50;1.40;;;11.00;99.90;;;;;;4998398;28;20203;-67
2024/04/04 02:22:03;;;;;;;2.53;1.70;;;11.00;99.90;;;;;;4997175;28;20201;-68
2024/04/04 02:24:29;;;;;;;2.23;1.23;;;11.00;99.90;;;;;;5002150;28;20182;-68
2024/04/04 02:26:54;;;;;;;1.50;1.20;;;10.90;99.90;;;;;;4992359;28;20179;-67
2024/04/04 02:29:20;;;;;;;0.80;0.80;;;10.90;99.90;;;;;;4994416;28;20195;-68
2024/04/04 02:31:46;;;;;;;3.00;1.37;;;10.80;99.90;;;;;;4997391;28;20204;-68
2024/04/04 02:34:12;;;;;;;3.90;1.93;;;10.80;99.90;;;;;;4998263;28;20218;-68
2024/04/04 02:36:38;;;;;;;2.33;1.77;;;10.80;99.90;;;;;;5004760;28;20262;-67
2024/04/04 02:39:04;;;;;;;3.93;1.40;;;10.80;99.90;;;;;;5004348;28;20548;-67
2024/04/04 02:41:29;;;;;;;3.23;1.50;;;10.70;99.90;;;;;;4996690;28;20194;-68
2024/04/04 02:43:55;;;;;;;2.33;1.67;;;10.70;99.90;;;;;;4992922;28;20246;-67
2024/04/04 02:46:21;;;;;;;3.20;1.30;;;10.60;99.90;;;;;;4993963;28;20176;-67
2024/04/04 02:48:46;;;;;;;5.47;1.50;;;10.60;99.90;;;;;;5004096;28;20182;-68
2024/04/04 02:51:12;;;;;;;4.07;2.23;;;10.60;99.90;;;;;;5000262;28;20226;-68
2024/04/04 02:53:40;;;;;;;2.37;1.60;;;10.70;99.90;;;;;;4992576;28;20184;-67
2024/04/04 02:56:06;;;;;;;2.70;1.40;;;10.70;99.90;;;;;;5004656;28;20175;-67
2024/04/04 02:58:31;;;;;;;3.47;1.50;;;10.70;99.90;;;;;;5001148;28;20512;-68
2024/04/04 03:01:03;;;;;;;2.03;1.20;;;10.80;99.90;;;;;;4992949;28;20242;-67
2024/04/04 03:03:28;;;;;;;3.60;1.57;;;10.80;99.90;;;;;;4993707;28;20187;-68
2024/04/04 03:05:54;;;;;;;2.90;1.43;;;10.80;99.90;;;;;;5011157;28;20945;-68
2024/04/04 03:08:19;;;;;;;1.73;1.63;;;10.80;99.90;;;;;;4991976;28;20188;-67
2024/04/04 03:10:45;;;;;;;2.27;1.30;;;10.80;99.90;;;;;;4999265;28;20178;-66
2024/04/04 03:13:10;;;;;;;3.50;1.53;;;10.80;99.90;;;;;;4993195;28;20653;-67
2024/04/04 03:15:36;;;;;;;1.70;1.20;;;10.80;99.90;;;;;;4999061;28;20707;-66
2024/04/04 03:18:01;;;;;;;1.90;1.47;;;10.80;99.90;;;;;;5003736;28;20253;-67
2024/04/04 03:20:27;;;;;;;2.97;1.20;;;10.80;99.90;;;;;;5003905;28;20168;-67
2024/04/04 03:22:52;;;;;;;1.60;1.47;;;10.70;99.90;;;;;;4996983;28;20207;-67
2024/04/04 03:25:18;;;;;;;1.20;1.10;;;10.70;99.90;;;;;;5001672;28;20539;-66
2024/04/04 03:27:44;;;;;;;2.70;1.60;;;10.70;99.90;;;;;;4993549;28;20172;-66
2024/04/04 03:30:10;;;;;;;6.53;1.40;;;10.70;99.90;;;;;;4997152;28;20172;-66
2024/04/04 03:32:36;;;;;;;2.30;1.40;;;10.70;99.90;;;;;;4999893;28;20281;-67
2024/04/04 03:35:02;;;;;;;1.83;1.47;;;10.70;99.90;;;;;;5003100;28;20464;-66
2024/04/04 03:37:27;;;;;;;2.20;2.00;;;10.70;99.90;;;;;;5006273;28;20586;-67
2024/04/04 03:39:54;;;;;;;2.37;1.30;;;10.70;99.90;;;;;;4996079;28;20195;-67
2024/04/04 03:42:20;;;;;;;2.60;1.43;;;10.60;99.90;;;;;;5001284;28;20223;-67
2024/04/04 03:44:46;;;;;;;1.40;1.30;;;10.60;99.90;;;;;;5004002;28;20542;-67
2024/04/04 03:47:11;;;;;;;2.03;1.23;;;10.60;99.90;;;;;;4996723;28;20954;-67
2024/04/04 03:49:37;;;;;;;3.67;2.27;;;10.60;99.90;;;;;;4995424;28;20176;-67
2024/04/04 03:52:02;;;;;;;5.70;1.87;;;10.60;99.90;;;;;;4995543;28;20204;-67
2024/04/04 03:54:28;;;;;;;2.00;1.20;;;10.50;99.90;;;;;;4995929;28;20570;-67
2024/04/04 03:56:53;;;;;;;2.00;1.20;;;10.50;99.90;;;;;;5003271;28;20207;-67
2024/04/04 03:59:19;;;;;;;1.70;1.43;;;10.50;99.90;;;;;;5004366;28;20211;-67
2024/04/04 04:01:44;;;;;;;2.77;1.50;;;10.60;99.90;;;;;;5011398;28;20274;-66
2024/04/04 04:04:10;;;;;;;2.97;1.40;;;10.60;99.90;;;;;;4999733;28;20176;-67
2024/04/04 04:06:35;;;;;;;1.27;1.17;;;10.60;99.90;;;;;;4994825;28;20533;-67
2024/04/04 04:09:02;;;;;;;1.57;1.33;;;10.60;99.90;;;;;;4999893;28;20175;-66
2024/04/04 04:11:27;;;;;;;2.90;1.43;;;10.70;99.90;;;;;;4996925;28;20217;-66
2024/04/04 04:13:53;;;;;;;1.67;1.20;;;10.80;99.90;;;;;;4997572;28;20423;-67
2024/04/04 04:16:18;;;;;;;2.70;1.60;;;10.70;99.90;;;;;;5003964;28;20190;-67
2024/04/04 04:18:44;;;;;;;2.70;1.40;;;10.70;99.90;;;;;;5010104;28;20192;-67
2024/04/04 04:21:24;;;;;;;2.77;2.57;;;10.70;99.90;;;;;;5011492;28;20648;-67
2024/04/04 04:23:51;;;;;;;1.33;1.23;;;10.70;99.90;;;;;;4997160;28;20251;-67
2024/04/04 04:26:17;;;;;;;1.50;1.40;;;10.70;99.90;;;;;;4998976;28;20446;-66
2024/04/04 04:28:44;;;;;;;2.30;1.93;;;10.60;99.90;;;;;;5002250;28;20924;-68
2024/04/04 04:31:28;;;;;;;2.10;1.20;;;10.60;99.90;;;;;;4996074;28;20437;-67
2024/04/04 04:33:59;;;;;;;3.53;1.20;;;10.50;99.90;;;;;;4994774;28;20434;-67
2024/04/04 04:36:30;;;;;;;2.00;1.60;;;10.50;99.90;;;;;;4984916;28;20517;-68
2024/04/04 04:38:55;;;;;;;1.57;1.47;;;10.50;99.90;;;;;;4995994;28;20474;-68
2024/04/04 04:41:21;;;;;;;2.60;1.70;;;10.50;99.90;;;;;;4998631;28;21037;-68
2024/04/04 04:43:48;;;;;;;2.60;1.43;;;10.50;99.90;;;;;;4993860;28;20219;-67
2024/04/04 04:46:14;;;;;;;1.40;1.13;;;10.40;99.90;;;;;;4988566;28;20197;-67
2024/04/04 04:48:40;;;;;;;1.50;1.40;;;10.40;99.90;;;;;;4993600;28;20430;-67
2024/04/04 04:51:06;;;;;;;1.70;1.50;;;10.30;99.90;;;;;;4994385;28;20580;-67
2024/04/04 04:53:32;;;;;;;2.93;1.43;;;10.30;99.90;;;;;;4994414;28;20175;-68
2024/04/04 04:55:58;;;;;;;3.20;1.37;;;10.30;99.90;;;;;;4994521;28;20454;-67
2024/04/04 04:58:23;;;;;;;3.77;2.00;;;10.30;99.90;;;;;;4993473;28;20192;-68
2024/04/04 05:00:51;;;;;;;3.20;1.70;;;10.30;99.90;;;;;;4993467;28;20546;-68
2024/04/04 05:03:17;;;;;;;2.20;1.73;;;10.30;99.90;;;;;;4994276;28;20270;-67
2024/04/04 05:05:43;;;;;;;1.13;1.00;;;10.30;99.90;;;;;;4993123;28;20509;-67
2024/04/04 05:08:08;;;;;;;4.17;1.30;;;10.30;99.90;;;;;;4992057;28;20543;-67
2024/04/04 05:10:34;;;;;;;2.30;1.53;;;10.30;99.90;;;;;;4994143;28;20183;-67
2024/04/04 05:12:59;;;;;;;4.93;1.90;;;10.30;99.90;;;;;;4993993;28;20275;-67
2024/04/04 05:15:26;;;;;;;2.30;1.60;;;10.40;99.90;;;;;;4994148;28;20555;-68
2024/04/04 05:17:51;;;;;;;4.27;1.60;;;10.40;99.90;;;;;;4992912;28;20529;-67
2024/04/04 05:20:17;;;;;;;1.63;1.53;;;10.40;99.90;;;;;;4991731;28;20274;-66
2024/04/04 05:22:43;;;;;;;2.70;1.40;;;10.50;99.90;;;;;;4993520;28;20199;-68
2024/04/04 05:25:14;;;;;;;4.67;1.30;;;10.50;99.90;;;;;;4993969;28;20557;-67
2024/04/04 05:27:43;;;;;;;1.70;1.17;;;10.50;99.90;;;;;;4994408;28;20790;-67
2024/04/04 05:30:16;;;;;;;1.80;1.27;;;10.60;99.90;;;;;;4993563;28;20426;-68
2024/04/04 05:32:42;;;;;;;4.57;1.20;;;10.60;99.90;;;;;;4993291;28;20821;-67
2024/04/04 05:35:08;;;;;;;2.73;1.27;;;10.60;99.90;;;;;;4992940;28;20426;-68
2024/04/04 05:37:35;;;;;;;2.13;1.70;;;10.70;99.90;;;;;;4990844;28;20598;-68
2024/04/04 05:40:01;;;;;;;2.87;1.47;;;10.70;99.90;;;;;;4993800;28;20549;-68
2024/04/04 05:42:28;;;;;;;3.90;1.93;;;10.70;99.90;;;;;;4993799;28;20910;-68
2024/04/04 05:44:54;;;;;;;4.60;2.80;;;10.70;99.90;;;;;;4993296;28;20221;-67
2024/04/04 05:47:20;;;;;;;1.60;1.27;;;10.80;99.90;;;;;;4992800;28;20426;-69
2024/04/04 05:49:45;;;;;;;2.10;1.47;;;10.80;99.90;;;;;;4993514;28;20779;-69
2024/04/04 05:52:11;;;;;;;2.90;1.13;;;11.00;99.90;;;;;;4992354;28;20496;-68
2024/04/04 05:54:39;;;;;;;2.47;1.67;;;11.20;99.90;;;;;;4994075;28;20542;-68
2024/04/04 05:57:05;;;;;;;3.83;2.17;;;11.40;99.90;;;;;;4992573;28;20187;-68
2024/04/04 05:59:30;;;;;;;3.87;1.90;;;11.40;99.90;;;;;;4994130;28;20463;-68
2024/04/04 06:01:56;;;;;;;5.33;2.20;;;11.50;99.90;;;;;;5005925;28;21209;-68
2024/04/04 06:04:21;;;;;;;3.40;1.40;;;11.50;99.90;;;;;;4996343;28;20190;-68
2024/04/04 06:06:47;;;;;;;5.70;1.70;;;11.50;99.90;;;;;;4993376;28;20194;-67
2024/04/04 06:09:13;;;;;;;3.40;2.43;;;11.60;99.90;;;;;;4992805;28;20864;-68
2024/04/04 06:11:39;;;;;;;1.90;1.50;;;11.70;99.90;;;;;;5007075;23;20208;-68
2024/04/04 06:14:05;;;;;;;6.00;1.70;;;11.70;99.90;;;;;;4985494;28;20431;-68
2024/04/04 06:16:31;;;;;;;2.00;1.53;;;11.70;99.90;;;;;;4984267;28;20458;-68
2024/04/04 06:18:56;;;;;;;3.43;1.47;;;11.70;99.90;;;;;;4992571;28;20494;-67
2024/04/04 06:21:22;;;;;;;3.23;1.83;;;11.80;99.90;;;;;;4984620;28;20593;-68
2024/04/04 06:23:47;;;;;;;2.10;1.33;;;11.90;99.90;;;;;;4974807;28;20169;-67
2024/04/04 06:26:13;;;;;;;2.57;1.57;;;12.00;99.90;;;;;;4986943;28;20625;-67
2024/04/04 06:28:39;;;;;;;3.20;2.87;;;12.10;99.90;;;;;;4981669;28;20192;-67
2024/04/04 06:31:05;;;;;;;8.10;2.50;;;12.30;99.90;;;;;;4972114;28;20299;-67
2024/04/04 06:33:30;;;;;;;5.93;1.60;;;12.40;99.90;;;;;;4977789;28;20452;-67
2024/04/04 06:35:56;;;;;;;5.63;1.60;;;12.60;99.90;;;;;;4976544;28;20172;-67
2024/04/04 06:38:21;;;;;;;4.30;1.30;;;12.70;99.90;;;;;;4973613;28;20277;-66
2024/04/04 06:40:47;;;;;;;7.03;2.07;;;12.60;99.90;;;;;;4974953;28;20327;-65
2024/04/04 06:43:13;;;;;;;4.87;2.10;;;12.60;99.90;;;;;;4980672;28;20670;-64
2024/04/04 06:45:38;;;;;;;4.33;1.63;;;12.50;99.90;;;;;;4973053;28;20176;-65
2024/04/04 06:48:04;;;;;;;8.30;1.93;;;12.50;99.90;;;;;;4972252;28;20267;-65
2024/04/04 06:50:30;;;;;;;5.30;2.40;;;12.50;99.90;;;;;;4981201;28;20188;-65
2024/04/04 06:52:55;;;;;;;10.37;2.30;;;12.40;99.90;;;;;;4990099;28;20807;-65
2024/04/04 06:55:21;;;;;;;6.23;2.10;;;12.40;99.90;;;;;;4972049;28;20200;-66
2024/04/04 06:57:47;;;;;;;5.47;2.20;;;12.50;99.90;;;;;;4972184;28;20188;-65
2024/04/04 07:00:14;;;;;;;6.97;3.03;;;12.70;99.90;;;;;;4973375;28;20640;-66
2024/04/04 07:02:39;;;;;;;5.20;1.80;;;12.80;99.90;;;;;;4973082;28;20196;-66
2024/04/04 07:05:06;;;;;;;4.83;2.37;;;12.80;99.90;;;;;;4973076;28;20445;-66
2024/04/04 07:07:31;;;;;;;3.53;2.50;;;13.10;99.90;;;;;;4972311;28;20176;-66
2024/04/04 07:09:57;;;;;;;5.10;1.77;;;13.40;99.90;;;;;;4972620;28;20431;-65
2024/04/04 07:12:23;;;;;;;5.03;2.90;;;13.70;99.90;;;;;;4973385;28;20222;-65
2024/04/04 07:14:48;;;;;;;5.80;3.20;;;13.90;99.90;;;;;;4972900;28;20657;-65
2024/04/04 07:17:14;;;;;;;7.20;1.60;;;14.10;99.90;;;;;;4972151;28;20184;-65
2024/04/04 07:19:39;;;;;;;5.77;1.93;;;14.20;99.90;;;;;;4972778;28;20234;-65
2024/04/04 07:22:05;;;;;;;2.10;1.47;;;14.40;99.90;;;;;;4988710;28;20665;-65
2024/04/04 07:24:31;;;;;;;5.60;2.53;;;14.50;99.90;;;;;;4988397;28;20204;-65
2024/04/04 07:26:57;;;;;;;5.57;3.33;;;14.50;99.90;;;;;;4972214;28;20443;-65
2024/04/04 07:29:22;;;;;;;5.00;2.90;;;14.40;99.90;;;;;;4972874;28;20481;-65
2024/04/04 07:31:49;;;;;;;6.93;2.37;;;14.30;99.90;;;;;;4972873;28;20588;-65
2024/04/04 07:34:15;;;;;;;8.27;2.80;;;14.10;99.90;;;;;;4972732;28;20264;-65
2024/04/04 07:36:40;;;;;;;2.90;2.00;;;14.10;99.90;;;;;;4972158;28;20522;-65
2024/04/04 07:39:06;;;;;;;6.20;2.10;;;14.00;99.90;;;;;;4972652;28;20204;-65
2024/04/04 07:41:31;;;;;;;5.73;2.20;;;14.00;99.90;;;;;;4972659;28;20322;-65
2024/04/04 07:43:59;;;;;;;18.57;3.57;;;13.90;99.90;;;;;;4972896;28;20549;-65
2024/04/04 07:46:25;;;;;;;4.63;1.97;;;13.70;99.90;;;;;;4972122;28;20296;-65
2024/04/04 07:48:51;;;;;;;8.10;2.07;;;13.20;99.90;;;;;;4972747;28;20507;-65
2024/04/04 07:51:18;;;;;;;9.17;2.90;;;13.00;99.90;;;;;;4978994;28;20180;-65
2024/04/04 07:53:43;;;;;;;5.10;3.50;;;12.80;99.90;;;;;;4991527;28;20504;-64
2024/04/04 07:56:11;;;;;;;4.87;2.30;;;12.70;99.90;;;;;;4986216;28;20474;-65
2024/04/04 07:58:37;;;;;;;8.47;2.00;;;12.70;99.90;;;;;;4971950;28;20188;-64
2024/04/04 08:01:04;;;;;;;4.90;1.97;;;12.70;99.90;;;;;;4974538;28;20434;-65
2024/04/04 08:03:32;;;;;;;4.57;2.57;;;12.70;99.90;;;;;;4975899;28;20841;-65
2024/04/04 08:05:57;;;;;;;3.27;1.83;;;12.70;99.90;;;;;;4976091;28;20419;-65
2024/04/04 08:08:23;;;;;;;4.33;2.20;;;12.80;99.90;;;;;;4975226;28;20423;-65
2024/04/04 08:10:49;;;;;;;7.20;2.07;;;12.90;99.90;;;;;;4975810;28;20208;-66
2024/04/04 08:13:15;;;;;;;3.77;1.73;;;13.10;99.90;;;;;;4975804;28;20589;-64
2024/04/04 08:15:41;;;;;;;4.73;1.57;;;13.20;99.90;;;;;;4966283;28;20454;-64
2024/04/04 08:18:07;;;;;;;3.70;1.60;;;13.10;99.90;;;;;;4974805;28;20883;-64
2024/04/04 08:20:32;;;;;;;7.37;2.13;;;12.90;99.90;;;;;;4975675;28;20231;-64
2024/04/04 08:22:58;;;;;;;7.30;2.50;;;12.80;99.90;;;;;;4975879;28;20200;-64
2024/04/04 08:25:24;;;;;;;6.83;4.33;;;12.70;99.90;;;;;;4975455;28;20588;-64
2024/04/04 08:27:49;;;;;;;4.63;2.17;;;12.80;99.90;;;;;;4974641;28;20681;-63
2024/04/04 08:30:15;;;;;;;4.00;1.87;;;12.80;99.90;;;;;;4975497;28;20176;-64
2024/04/04 08:32:41;;;;;;;9.50;2.20;;;12.80;99.90;;;;;;4974125;28;20227;-64
2024/04/04 08:35:07;;;;;;;4.50;2.00;;;12.80;99.90;;;;;;4975318;28;20178;-64
2024/04/04 08:37:33;;;;;;;7.23;2.00;;;12.90;99.90;;;;;;4983444;28;20183;-64
2024/04/04 08:39:59;;;;;;;4.83;2.17;;;12.90;99.90;;;;;;4975167;28;20470;-65
2024/04/04 08:42:26;;;;;;;6.40;2.00;;;13.00;99.90;;;;;;4975074;28;20435;-64
2024/04/04 08:44:53;;;;;;;4.80;2.10;;;13.10;99.90;;;;;;4975119;28;20168;-64
2024/04/04 08:47:20;;;;;;;6.20;1.53;;;13.10;99.90;;;;;;4974588;28;20435;-64
2024/04/04 08:49:47;;;;;;;5.33;2.50;;;13.10;99.90;;;;;;4974735;28;20892;-64
2024/04/04 08:52:18;;;;;;;3.10;2.10;;;13.10;99.90;;;;;;4975167;28;20455;-64
2024/04/04 08:54:44;;;;;;;9.23;2.50;;;13.10;99.90;;;;;;4974975;28;20428;-64
2024/04/04 08:57:10;;;;;;;3.03;1.80;;;13.10;99.90;;;;;;4974371;28;20427;-64
2024/04/04 08:59:35;;;;;;;3.47;1.77;;;13.10;99.90;;;;;;4975323;28;20975;-64
2024/04/04 09:02:01;;;;;;;3.20;1.80;;;13.20;99.90;;;;;;4974496;28;20744;-64
2024/04/04 09:04:29;;;;;;;5.07;1.87;;;13.30;99.90;;;;;;4974735;28;20665;-64
2024/04/04 09:06:55;;;;;;;3.40;1.70;;;13.50;99.90;;;;;;4974254;28;20518;-65
2024/04/04 09:09:20;;;;;;;2.97;1.93;;;13.60;99.90;;;;;;4974203;28;20428;-64
2024/04/04 09:11:49;;;;;;;3.43;2.47;;;13.70;99.90;;;;;;4974197;28;20502;-64
2024/04/04 09:14:15;;;;;;;3.47;2.07;;;13.80;99.90;;;;;;4974485;28;20183;-65
2024/04/04 09:16:42;;;;;;;3.43;2.00;;;13.80;99.90;;;;;;4973979;28;20423;-64
2024/04/04 09:19:18;;;;;;;4.13;1.83;;;13.90;99.90;;;;;;4955000;28;20445;-64
2024/04/04 09:21:44;;;;;;;4.20;2.10;;;13.90;99.90;;;;;;4971497;28;20994;-64
2024/04/04 09:24:15;;;;;;;8.87;3.17;;;14.00;99.90;;;;;;4992491;28;20474;-64
2024/04/04 09:26:43;;;;;;;4.53;2.23;;;14.10;99.90;;;;;;4993204;28;20407;-64
2024/04/04 09:29:09;;;;;;;2.63;1.50;;;14.30;99.90;;;;;;4993446;28;20875;-64
2024/04/04 09:31:36;;;;;;;2.40;1.47;;;14.40;99.90;;;;;;4976132;28;20496;-64
2024/04/04 09:34:03;;;;;;;5.83;2.73;;;14.40;99.90;;;;;;4974374;28;20427;-64
2024/04/04 09:36:30;;;;;;;1.90;1.30;;;14.50;99.90;;;;;;4973274;28;20426;-64
2024/04/04 09:38:58;;;;;;;4.80;2.53;;;14.40;99.90;;;;;;4988423;28;20462;-64
2024/04/04 09:41:23;;;;;;;4.53;1.93;;;14.20;99.90;;;;;;4982186;28;20550;-64
2024/04/04 09:43:50;;;;;;;4.43;1.50;;;14.10;99.90;;;;;;4971094;28;20980;-64
2024/04/04 09:46:19;;;;;;;7.17;1.87;;;14.20;99.90;;;;;;4983091;28;20634;-65
2024/04/04 09:48:46;;;;;;;9.30;3.27;;;14.30;99.90;;;;;;4973630;28;20510;-64
2024/04/04 09:51:12;;;;;;;4.60;1.63;;;14.10;99.90;;;;;;4973716;28;20936;-63
2024/04/04 09:53:39;;;;;;;8.33;4.30;;;14.00;99.90;;;;;;4974239;28;20842;-63
2024/04/04 09:56:06;;;;;;;3.90;2.00;;;14.00;99.90;;;;;;4973982;28;20424;-65
2024/04/04 09:58:33;;;;;;;2.93;1.43;;;13.90;99.90;;;;;;4973098;28;20495;-65
2024/04/04 10:01:26;;;;;;;5.83;2.20;;;13.70;99.90;;;;;;4973969;28;20412;-65
2024/04/04 10:03:52;;;;;;;5.33;2.50;;;13.50;99.90;;;;;;4974223;28;20427;-64
2024/04/04 10:06:29;;;;;;;3.00;1.77;;;13.30;99.90;;;;;;4973709;28;20859;-64
2024/04/04 10:08:58;;;;;;;4.97;1.93;;;13.10;99.90;;;;;;4972983;28;20171;-63
2024/04/04 10:11:33;;;;;;;5.50;1.83;;;13.00;99.90;;;;;;4973318;28;20463;-64
2024/04/04 10:14:02;;;;;;;5.17;2.27;;;12.90;99.90;;;;;;4973870;28;20423;-64
2024/04/04 10:16:35;;;;;;;4.60;1.90;;;12.80;99.90;;;;;;4973372;28;20424;-64
2024/04/04 10:19:09;;;;;;;5.83;2.40;;;12.70;99.90;;;;;;4973584;28;20534;-65
2024/04/04 10:21:34;;;;;;;4.33;2.73;;;12.70;99.90;;;;;;4973575;28;20439;-64
2024/04/04 10:24:02;;;;;;;4.33;2.10;;;12.70;99.90;;;;;;4973236;28;20466;-64
2024/04/04 10:26:28;;;;;;;5.63;2.97;;;12.80;99.90;;;;;;4972778;28;20164;-64
2024/04/04 10:28:53;;;;;;;5.40;3.20;;;12.80;99.90;;;;;;4971212;28;20482;-66
2024/04/04 10:31:19;;;;;;;7.67;2.10;;;12.80;99.90;;;;;;4973165;28;20222;-63
2024/04/04 10:33:44;;;;;;;3.97;2.37;;;12.70;99.90;;;;;;4973645;28;20184;-65
2024/04/04 10:36:10;;;;;;;3.43;2.40;;;12.70;99.90;;;;;;4973331;28;20183;-64
2024/04/04 10:38:36;;;;;;;5.70;2.10;;;12.70;99.90;;;;;;4972614;28;20196;-65
2024/04/04 10:41:02;;;;;;;9.40;2.93;;;12.80;99.90;;;;;;4973380;28;20443;-65
2024/04/04 10:43:27;;;;;;;5.10;2.83;;;12.80;99.90;;;;;;4973256;28;20662;-65
2024/04/04 10:45:53;;;;;;;4.17;3.07;;;12.80;99.90;;;;;;4973549;28;20176;-66
2024/04/04 10:48:19;;;;;;;4.77;2.67;;;12.90;99.90;;;;;;4972567;28;20173;-65
2024/04/04 10:50:45;;;;;;;3.70;2.30;;;13.00;99.90;;;;;;4972962;28;20446;-64
2024/04/04 10:53:10;;;;;;;5.50;3.00;;;13.10;99.90;;;;;;4973083;28;20235;-65
2024/04/04 10:55:36;;;;;;;2.93;1.80;;;13.10;99.90;;;;;;4973277;28;20180;-65
2024/04/04 10:58:08;;;;;;;7.87;2.20;;;13.10;99.90;;;;;;4972359;28;20219;-65
2024/04/04 11:00:35;;;;;;;3.30;1.80;;;13.10;99.90;;;;;;4972856;28;20176;-65
2024/04/04 11:03:01;;;;;;;3.17;1.77;;;13.10;99.90;;;;;;4972883;28;20431;-65
2024/04/04 11:05:28;;;;;;;4.13;2.70;;;13.30;99.90;;;;;;4973226;28;20431;-65
2024/04/04 11:07:57;;;;;;;2.90;1.90;;;13.60;99.90;;;;;;4972289;28;20216;-66
2024/04/04 11:10:23;;;;;;;2.80;1.90;;;14.00;99.90;;;;;;4978465;28;20850;-65
2024/04/04 11:12:49;;;;;;;3.03;2.73;;;14.10;99.90;;;;;;4972824;28;20884;-64
2024/04/04 11:15:15;;;;;;;3.50;2.37;;;14.10;99.90;;;;;;4973204;28;20427;-65
2024/04/04 11:17:41;;;;;;;6.63;3.67;;;14.10;99.90;;;;;;4972152;28;20669;-65
2024/04/04 11:20:08;;;;;;;3.90;1.70;;;13.90;99.90;;;;;;4972677;28;20972;-65
2024/04/04 11:22:37;;;;;;;6.93;2.37;;;13.80;99.90;;;;;;4972859;28;20534;-64
2024/04/04 11:25:06;;;;;;;2.07;1.80;;;13.60;99.90;;;;;;4983127;28;20514;-65
2024/04/04 11:27:38;;;;;;;3.97;2.43;;;13.60;99.90;;;;;;4991412;28;21196;-65
2024/04/04 11:30:09;;;;;;;5.63;2.23;;;13.70;99.90;;;;;;4992267;28;20433;-65
2024/04/04 11:32:36;;;;;;;3.80;2.20;;;13.80;99.90;;;;;;4972159;28;20451;-64
2024/04/04 11:35:08;;;;;;;7.40;2.27;;;13.80;99.90;;;;;;4975070;28;20427;-64
2024/04/04 11:37:33;;;;;;;4.20;1.87;;;13.70;99.90;;;;;;4968623;28;20431;-64
2024/04/04 11:39:59;;;;;;;2.73;1.80;;;13.50;99.90;;;;;;4975382;28;20540;-64
2024/04/04 11:42:26;;;;;;;5.70;2.60;;;13.40;99.90;;;;;;4976099;28;20203;-64
2024/04/04 11:44:52;;;;;;;7.33;2.70;;;13.30;99.90;;;;;;4976091;28;20536;-64
2024/04/04 11:47:17;;;;;;;9.17;2.17;;;13.30;99.90;;;;;;4975464;28;20427;-65
2024/04/04 11:49:43;;;;;;;2.80;2.60;;;13.40;99.90;;;;;;4976132;28;20184;-65
2024/04/04 11:52:09;;;;;;;2.53;2.33;;;13.30;99.90;;;;;;4975610;28;20780;-64
2024/04/04 11:54:34;;;;;;;3.17;2.20;;;13.30;99.90;;;;;;4976022;28;20240;-65
2024/04/04 11:57:00;;;;;;;5.80;3.00;;;13.30;99.90;;;;;;4975229;28;20188;-67
2024/04/04 11:59:25;;;;;;;4.83;2.50;;;13.40;99.90;;;;;;4975683;28;20204;-64
2024/04/04 12:01:52;;;;;;;4.87;2.33;;;13.40;99.90;;;;;;4975665;28;20192;-67
2024/04/04 12:04:18;;;;;;;2.70;1.93;;;13.50;99.90;;;;;;4976104;28;20203;-64
2024/04/04 12:06:43;;;;;;;4.73;1.97;;;13.70;99.90;;;;;;4975011;28;20424;-64
2024/04/04 12:09:13;;;;;;;3.93;1.90;;;14.10;99.90;;;;;;4975546;28;20599;-64
2024/04/04 12:11:40;;;;;;;5.27;2.30;;;14.60;99.90;;;;;;4994512;28;20192;-64
2024/04/04 12:14:07;;;;;;;6.00;2.47;;;15.10;99.90;;;;;;4971902;28;20432;-63
2024/04/04 12:16:32;;;;;;;6.33;2.13;;;15.40;99.90;;;;;;4955692;28;20428;-63
2024/04/04 12:21:43;;;;;;;5.20;2.10;;;15.20;99.90;;;;;;4975740;28;20616;-66
2024/04/04 12:24:09;;;;;;;6.93;2.50;;;14.90;99.90;;;;;;4975389;28;20424;-64
2024/04/04 12:26:35;;;;;;;2.10;1.67;;;14.70;99.90;;;;;;4975159;28;20172;-67
2024/04/04 12:29:00;;;;;;;3.90;1.83;;;14.50;99.90;;;;;;4975456;28;20184;-67
2024/04/04 12:31:26;;;;;;;2.90;2.60;;;14.30;99.90;;;;;;4973920;28;20177;-66
2024/04/04 12:33:51;;;;;;;4.87;1.90;;;14.20;99.90;;;;;;4975781;28;20188;-65
2024/04/04 12:36:17;;;;;;;3.60;1.60;;;14.10;99.90;;;;;;4975008;28;20976;-65
2024/04/04 12:38:42;;;;;;;3.13;1.53;;;14.00;99.90;;;;;;4974871;28;20203;-65
2024/04/04 12:41:08;;;;;;;6.00;1.27;;;14.00;99.90;;;;;;4975592;28;20223;-64
2024/04/04 12:43:34;;;;;;;5.60;1.70;;;14.10;99.90;;;;;;4975211;28;20188;-65
2024/04/04 12:46:05;;;;;;;2.33;1.53;;;14.20;99.90;;;;;;4974360;28;20428;-65